x

Galveston,tx - 22 Nm East Of Galveston, Tx (42035) Wave Buoy

1:50am - Fri 1st Jul 2016 All times are CDT. -5 hours from GMT.

  • Sig Wave height 0.7ft
  • Average Period 3s
  • Wind
    4mph, 7mph gusts
  • Sea Temp 88°f
  • Air Temp 85°f
  • Sea Pressure 1014.2mb
  • Galveston,tx -  22 Nm East Of Galveston, Tx
  • Galveston,tx -  22 Nm East Of Galveston, Tx

More Historic Weather Station data

Upgrade to MSW Pro to gain access to the past 30 days of data for over 8000 Wavebouys and Weather Stations around the globe.

Join Pro

Comparision Forecast

View Surf forecast
   
Fri 07/01 1:50am 0.7ft  -  3s 4 7 mph 1014.2mb 88f 85f
12:50am 0.7ft  -  3s 2 7 mph 1014.3mb 88f 85f
Thu 06/30 11:50pm 0.7ft  -  3s 7 9 mph 1014.3mb 88f 85f
10:50pm 0.7ft  -  3s 9
mph
1014mb 88f 85f
9:50pm 1ft 3s 3s 9 11 mph 1013.3mb 88f 85f
8:50pm 0.7ft  -  3s 11 13 mph 1013mb 88f 85f
6:50pm 1ft 3s 3s 9 11 mph 1013.6mb 88f 86f
5:50pm 1ft 3s 3s 11 13 mph 1013.5mb 88f 85f
4:50pm 1ft 3s 3s 11 13 mph 1013.5mb 88f 85f
3:50pm 1ft 3s 3s 11 13 mph 1013.6mb 88f 85f
2:50pm 1ft 3s 3s 11 13 mph 1013.7mb 88f 84f
1:50pm 1ft 3s 3s 11 13 mph 1014.1mb 88f 84f
12:50pm 1ft 3s 3s 11 13 mph 1014.6mb 87f 83f
11:50am 1ft 4s 3s 11 13 mph 1014.9mb 87f 83f
10:50am 1ft 4s 3s 9 11 mph 1014.7mb 87f 83f
9:50am 1ft 3s 3s 9 11 mph 1014.2mb 87f 83f
8:50am 1ft 3s 3s 9 11 mph 1013.8mb 86f 81f
7:50am 1.3ft 3s 3s 11 13 mph 1013.7mb 86f 79f
6:50am 1ft 2s 3s 11 18 mph 1013.6mb 86f 81f
5:50am 1ft 5s 3s 11 20 mph 1012.9mb 87f 80f
4:50am 0.7ft  -  4s 7 9 mph 1012.7mb 87f 83f
3:50am 1ft 4s 4s 2 4 mph 1012.6mb 87f 83f
2:50am 1ft 5s 4s 2 4 mph 1012.7mb 87f 83f
1:50am 0.7ft  -  4s 4
mph
1013.1mb 87f 83f
12:50am 0.7ft  -  3s 4
mph
1013.1mb 87f 82f
Wed 06/29 11:50pm 0.7ft  -  4s 9 11 mph 1013.4mb 87f 82f
10:50pm 0.7ft  -  4s 7 9 mph 1014mb 88f 85f
9:50pm 0.7ft  -  4s 4 7 mph 1013.2mb 88f 84f
8:50pm 0.7ft  -  4s 4 7 mph 1013.1mb 88f 84f
7:50pm 0.7ft  -  3s 4 7 mph 1012.9mb 88f 84f
6:50pm 1ft 4s 4s 4 7 mph 1012.8mb 88f 84f
5:50pm 1ft 5s 4s 4 7 mph 1013.1mb 88f 83f
4:50pm 1ft 4s 4s 9 11 mph 1013mb 88f 83f
3:50pm 1ft 4s 3s 7 9 mph 1013.3mb 89f 84f
2:50pm 1ft 3s 3s 2 4 mph 1014mb 88f 84f
1:50pm 1ft 3s 3s 4 7 mph 1014.6mb 87f 83f
12:50pm 1ft 3s 3s 7 9 mph 1014.8mb 87f 83f
11:50am 1.3ft 3s 3s 9 13 mph 1014.8mb 86f 82f
10:50am 1.3ft 3s 3s 13 16 mph 1014.7mb 86f 81f
9:50am 1ft 3s 3s 11 16 mph 1014.5mb 86f 80f
8:50am 1ft 2s 3s 13 16 mph 1014.8mb 86f 80f
7:50am 0.7ft  -  4s 11 13 mph 1014.3mb 86f 81f
6:50am 0.7ft  -  4s 7 9 mph 1013.6mb 86f 81f
5:50am 1ft 3s 4s 4 9 mph 1013.5mb 86f 81f
4:50am 1ft 4s 3s 2 4 mph 1013.2mb 87f 81f
2:50am 1ft 5s 3s 7 9 mph 1013.8mb 87f 81f
1:50am 1ft 3s 3s 4 7 mph 1014.1mb 87f 82f
12:50am 1ft 3s 3s 7 9 mph 1014.5mb 87f 82f
Tue 06/28 11:50pm 1.3ft 3s 3s 4 9 mph 1015mb 87f 83f
10:50pm 1.3ft 3s 3s 11 13 mph 1015mb 87f 83f
9:50pm 1.6ft 3s 3s 11 13 mph 1014.7mb 87f 82f
8:50pm 2.5ft 4s 3s 11 13 mph 1014.2mb 87f 82f
7:50pm 2ft 4s 3s 13 16 mph 1014.4mb 87f 81f
6:50pm 2ft 4s 3s 16 20 mph 1014.2mb 87f 82f
5:50pm 1.6ft 3s 3s 18 22 mph 1014.1mb 87f 85f
4:50pm 1ft 2s 3s 16 20 mph 1013.7mb 87f 85f
3:50pm 1ft 5s 3s 11 16 mph 1014.4mb 88f 86f
2:50pm 1ft 6s 4s 7 9 mph 1013.9mb 88f 85f
1:50pm 1ft 6s 4s 7 9 mph 1014.9mb 88f 86f
12:50pm 1ft 6s 4s 4 7 mph 1016.9mb 88f 86f
11:50am 1ft 5s 3s 4
mph
1017.6mb 87f 86f
10:50am 1.3ft 3s 3s 7 9 mph 1017.5mb 87f 85f
9:50am 1.3ft 3s 3s 9
mph
1017.2mb 87f 85f
8:50am 1.6ft 3s 3s 13 16 mph 1016.2mb 87f 84f
7:50am 1.3ft 6s 3s 13 16 mph 1016mb 87f 85f
6:50am 1.3ft 6s 4s 11 13 mph 1015.8mb 87f 85f
5:50am 1.3ft 6s 4s 11 13 mph 1015.7mb 87f 85f
4:50am 1.3ft 6s 5s 11 13 mph 1015.7mb 88f 86f
3:50am 1.3ft 5s 5s 9
mph
1015.9mb 88f 85f
2:50am 1.3ft 6s 4s 4 7 mph 1016.2mb 88f 86f
1:50am 1.3ft 6s 5s  -  2 mph 1016.6mb 88f 85f
12:50am 1.3ft 5s 5s 4
mph
1016.8mb 88f 85f
Mon 06/27 11:50pm 1.6ft 5s 5s  -  2 mph 1016.9mb 89f 86f
10:50pm 1.3ft 6s 5s 9 13 mph 1017.1mb 89f 85f
9:50pm 1.3ft 6s 5s 7
mph
1016.6mb 89f 86f
8:50pm 1.6ft 6s 5s 4
mph
1016.1mb 89f 86f
7:50pm 1.3ft 6s 5s 7 9 mph 1015.7mb 90f 87f
6:50pm 1.3ft 5s 5s 7 9 mph 1015.1mb 91f 87f
5:50pm 1.3ft 5s 5s 7
mph
1015.6mb 91f 87f
4:50pm 1.3ft 6s 5s 7
mph
1016.4mb 91f 87f
3:50pm 1.3ft 6s 5s 4 7 mph 1016.9mb 92f 86f
2:50pm 1.3ft 6s 5s 2 4 mph 1017.5mb 92f 86f
1:50pm 1.3ft 6s 5s 2 4 mph 1018mb 91f 86f
12:50pm 1.3ft 5s 5s 4 7 mph 1018.5mb 89f 85f
11:50am 1.3ft 5s 5s 4
mph
1018.8mb 88f 85f
10:50am 1.6ft 6s 5s 2 4 mph 1018.7mb 87f 85f
9:50am 1.6ft 6s 5s 4 7 mph 1019mb 87f 85f
8:50am 1.6ft 5s 4s 7
mph
1019mb 87f 85f
7:50am 1.6ft 5s 4s 2
mph
1018.7mb 87f 86f